sensor_id;sensor_type;location;lat;lon;timestamp;P1;durP1;ratioP1;P2;durP2;ratioP2
38208;SDS011;24016;52.102;11.584;2022-08-01T00:00:24;4.25;;;3.38;;
38208;SDS011;24016;52.102;11.584;2022-08-01T00:02:50;4.15;;;3.42;;
38208;SDS011;24016;52.102;11.584;2022-08-01T00:05:15;4.47;;;3.30;;
38208;SDS011;24016;52.102;11.584;2022-08-01T00:07:41;4.78;;;3.15;;
38208;SDS011;24016;52.102;11.584;2022-08-01T00:10:08;3.85;;;3.15;;
38208;SDS011;24016;52.102;11.584;2022-08-01T00:12:36;4.82;;;3.35;;
38208;SDS011;24016;52.102;11.584;2022-08-01T00:15:03;3.97;;;3.30;;
38208;SDS011;24016;52.102;11.584;2022-08-01T00:17:30;4.35;;;3.28;;
38208;SDS011;24016;52.102;11.584;2022-08-01T00:19:56;3.25;;;2.85;;
38208;SDS011;24016;52.102;11.584;2022-08-01T00:22:21;5.97;;;3.25;;
38208;SDS011;24016;52.102;11.584;2022-08-01T00:24:47;3.47;;;3.05;;
38208;SDS011;24016;52.102;11.584;2022-08-01T00:27:12;5.07;;;3.10;;
38208;SDS011;24016;52.102;11.584;2022-08-01T00:29:38;3.83;;;2.75;;
38208;SDS011;24016;52.102;11.584;2022-08-01T00:32:04;3.67;;;2.90;;
38208;SDS011;24016;52.102;11.584;2022-08-01T00:34:29;4.57;;;2.80;;
38208;SDS011;24016;52.102;11.584;2022-08-01T00:36:55;4.25;;;3.05;;
38208;SDS011;24016;52.102;11.584;2022-08-01T00:39:21;3.63;;;2.92;;
38208;SDS011;24016;52.102;11.584;2022-08-01T00:41:46;3.38;;;2.95;;
38208;SDS011;24016;52.102;11.584;2022-08-01T00:44:12;3.95;;;3.03;;
38208;SDS011;24016;52.102;11.584;2022-08-01T00:46:37;3.10;;;2.47;;
38208;SDS011;24016;52.102;11.584;2022-08-01T00:49:03;3.72;;;2.80;;
38208;SDS011;24016;52.102;11.584;2022-08-01T00:51:28;5.10;;;3.22;;
38208;SDS011;24016;52.102;11.584;2022-08-01T00:53:55;3.83;;;3.00;;
38208;SDS011;24016;52.102;11.584;2022-08-01T00:56:21;3.67;;;3.03;;
38208;SDS011;24016;52.102;11.584;2022-08-01T00:58:49;5.97;;;3.38;;
38208;SDS011;24016;52.102;11.584;2022-08-01T01:01:15;5.97;;;3.33;;
38208;SDS011;24016;52.102;11.584;2022-08-01T01:03:41;4.07;;;2.97;;
38208;SDS011;24016;52.102;11.584;2022-08-01T01:06:23;3.80;;;2.60;;
38208;SDS011;24016;52.102;11.584;2022-08-01T01:12:11;5.57;;;3.00;;
38208;SDS011;24016;52.102;11.584;2022-08-01T01:14:38;4.75;;;3.30;;
38208;SDS011;24016;52.102;11.584;2022-08-01T01:17:20;3.90;;;3.10;;
38208;SDS011;24016;52.102;11.584;2022-08-01T01:19:53;4.45;;;3.10;;
38208;SDS011;24016;52.102;11.584;2022-08-01T01:22:25;4.07;;;3.00;;
38208;SDS011;24016;52.102;11.584;2022-08-01T01:35:58;5.65;;;3.30;;
38208;SDS011;24016;52.102;11.584;2022-08-01T01:40:57;4.07;;;3.65;;
38208;SDS011;24016;52.102;11.584;2022-08-01T01:43:24;4.18;;;3.45;;
38208;SDS011;24016;52.102;11.584;2022-08-01T01:45:52;3.92;;;3.53;;
38208;SDS011;24016;52.102;11.584;2022-08-01T01:48:19;3.55;;;3.20;;
38208;SDS011;24016;52.102;11.584;2022-08-01T01:50:47;3.97;;;3.50;;
38208;SDS011;24016;52.102;11.584;2022-08-01T01:53:15;5.78;;;3.65;;
38208;SDS011;24016;52.102;11.584;2022-08-01T01:55:43;4.53;;;3.65;;
38208;SDS011;24016;52.102;11.584;2022-08-01T01:58:13;5.70;;;4.00;;
38208;SDS011;24016;52.102;11.584;2022-08-01T02:00:40;4.70;;;3.70;;
38208;SDS011;24016;52.102;11.584;2022-08-01T02:03:09;6.05;;;3.80;;
38208;SDS011;24016;52.102;11.584;2022-08-01T02:05:36;5.80;;;4.05;;
38208;SDS011;24016;52.102;11.584;2022-08-01T02:08:03;3.80;;;3.38;;
38208;SDS011;24016;52.102;11.584;2022-08-01T02:10:31;5.68;;;4.28;;
38208;SDS011;24016;52.102;11.584;2022-08-01T02:12:59;5.85;;;4.18;;
38208;SDS011;24016;52.102;11.584;2022-08-01T02:15:28;4.88;;;4.15;;
38208;SDS011;24016;52.102;11.584;2022-08-01T02:17:55;7.18;;;3.95;;
38208;SDS011;24016;52.102;11.584;2022-08-01T02:20:22;4.13;;;3.35;;
38208;SDS011;24016;52.102;11.584;2022-08-01T02:22:50;5.57;;;3.92;;
38208;SDS011;24016;52.102;11.584;2022-08-01T02:25:25;5.50;;;3.90;;
38208;SDS011;24016;52.102;11.584;2022-08-01T02:28:41;4.40;;;4.00;;
38208;SDS011;24016;52.102;11.584;2022-08-01T02:30:50;6.30;;;4.05;;
38208;SDS011;24016;52.102;11.584;2022-08-01T02:33:19;5.32;;;3.90;;
38208;SDS011;24016;52.102;11.584;2022-08-01T02:35:51;4.93;;;4.20;;
38208;SDS011;24016;52.102;11.584;2022-08-01T02:38:22;7.18;;;4.47;;
38208;SDS011;24016;52.102;11.584;2022-08-01T02:40:50;4.80;;;4.22;;
38208;SDS011;24016;52.102;11.584;2022-08-01T02:43:20;4.93;;;4.32;;
38208;SDS011;24016;52.102;11.584;2022-08-01T02:45:49;5.97;;;4.30;;
38208;SDS011;24016;52.102;11.584;2022-08-01T02:48:18;6.22;;;4.50;;
38208;SDS011;24016;52.102;11.584;2022-08-01T02:50:47;5.32;;;4.38;;
38208;SDS011;24016;52.102;11.584;2022-08-01T02:53:16;6.45;;;4.53;;
38208;SDS011;24016;52.102;11.584;2022-08-01T02:55:44;5.40;;;4.90;;
38208;SDS011;24016;52.102;11.584;2022-08-01T02:58:12;5.68;;;5.05;;
38208;SDS011;24016;52.102;11.584;2022-08-01T03:00:41;5.30;;;4.80;;
38208;SDS011;24016;52.102;11.584;2022-08-01T03:03:08;5.70;;;5.10;;
38208;SDS011;24016;52.102;11.584;2022-08-01T03:05:35;5.05;;;4.55;;
38208;SDS011;24016;52.102;11.584;2022-08-01T03:08:01;5.43;;;4.60;;
38208;SDS011;24016;52.102;11.584;2022-08-01T03:10:28;5.15;;;4.65;;
38208;SDS011;24016;52.102;11.584;2022-08-01T03:12:54;7.03;;;4.72;;
38208;SDS011;24016;52.102;11.584;2022-08-01T03:15:22;7.22;;;5.47;;
38208;SDS011;24016;52.102;11.584;2022-08-01T03:17:50;5.85;;;5.07;;
38208;SDS011;24016;52.102;11.584;2022-08-01T03:20:17;9.52;;;6.18;;
38208;SDS011;24016;52.102;11.584;2022-08-01T03:22:45;7.65;;;6.95;;
38208;SDS011;24016;52.102;11.584;2022-08-01T03:25:14;8.13;;;7.03;;
38208;SDS011;24016;52.102;11.584;2022-08-01T03:27:42;8.00;;;7.30;;
38208;SDS011;24016;52.102;11.584;2022-08-01T03:30:10;9.45;;;8.18;;
38208;SDS011;24016;52.102;11.584;2022-08-01T03:32:37;10.25;;;8.70;;
38208;SDS011;24016;52.102;11.584;2022-08-01T03:35:03;9.45;;;8.32;;
38208;SDS011;24016;52.102;11.584;2022-08-01T03:37:30;11.18;;;8.50;;
38208;SDS011;24016;52.102;11.584;2022-08-01T03:40:06;12.57;;;8.95;;
38208;SDS011;24016;52.102;11.584;2022-08-01T03:42:44;9.88;;;8.90;;
38208;SDS011;24016;52.102;11.584;2022-08-01T03:45:15;10.27;;;9.38;;
38208;SDS011;24016;52.102;11.584;2022-08-01T03:47:47;10.75;;;9.75;;
38208;SDS011;24016;52.102;11.584;2022-08-01T03:50:17;10.93;;;9.82;;
38208;SDS011;24016;52.102;11.584;2022-08-01T03:52:46;11.55;;;10.43;;
38208;SDS011;24016;52.102;11.584;2022-08-01T03:55:13;13.00;;;11.00;;
38208;SDS011;24016;52.102;11.584;2022-08-01T03:57:41;11.00;;;10.00;;
38208;SDS011;24016;52.102;11.584;2022-08-01T04:00:09;10.43;;;9.43;;
38208;SDS011;24016;52.102;11.584;2022-08-01T04:02:35;11.00;;;9.90;;
38208;SDS011;24016;52.102;11.584;2022-08-01T04:05:02;14.18;;;10.50;;
38208;SDS011;24016;52.102;11.584;2022-08-01T04:07:32;11.20;;;10.10;;
38208;SDS011;24016;52.102;11.584;2022-08-01T04:10:04;10.40;;;9.50;;
38208;SDS011;24016;52.102;11.584;2022-08-01T04:12:30;10.13;;;8.27;;
38208;SDS011;24016;52.102;11.584;2022-08-01T04:14:56;8.48;;;7.68;;
38208;SDS011;24016;52.102;11.584;2022-08-01T04:17:21;7.85;;;6.60;;
38208;SDS011;24016;52.102;11.584;2022-08-01T04:19:47;7.13;;;6.43;;
38208;SDS011;24016;52.102;11.584;2022-08-01T04:22:13;7.10;;;6.40;;
38208;SDS011;24016;52.102;11.584;2022-08-01T04:24:41;7.28;;;6.43;;
38208;SDS011;24016;52.102;11.584;2022-08-01T04:27:14;6.72;;;6.03;;
38208;SDS011;24016;52.102;11.584;2022-08-01T04:29:46;10.27;;;6.50;;
38208;SDS011;24016;52.102;11.584;2022-08-01T04:32:15;17.98;;;6.35;;
38208;SDS011;24016;52.102;11.584;2022-08-01T04:34:44;8.88;;;5.95;;
38208;SDS011;24016;52.102;11.584;2022-08-01T04:37:11;7.10;;;6.10;;
38208;SDS011;24016;52.102;11.584;2022-08-01T04:39:38;6.35;;;5.68;;
38208;SDS011;24016;52.102;11.584;2022-08-01T04:42:06;7.30;;;5.28;;
38208;SDS011;24016;52.102;11.584;2022-08-01T04:44:32;5.45;;;4.65;;
38208;SDS011;24016;52.102;11.584;2022-08-01T04:46:58;5.40;;;4.90;;
38208;SDS011;24016;52.102;11.584;2022-08-01T04:49:25;5.72;;;5.22;;
38208;SDS011;24016;52.102;11.584;2022-08-01T04:51:55;7.95;;;5.00;;
38208;SDS011;24016;52.102;11.584;2022-08-01T04:54:33;6.90;;;4.47;;
38208;SDS011;24016;52.102;11.584;2022-08-01T04:57:01;5.00;;;4.43;;
38208;SDS011;24016;52.102;11.584;2022-08-01T04:59:28;6.78;;;5.10;;
38208;SDS011;24016;52.102;11.584;2022-08-01T05:02:07;5.60;;;5.00;;
38208;SDS011;24016;52.102;11.584;2022-08-01T05:04:37;5.40;;;4.90;;
38208;SDS011;24016;52.102;11.584;2022-08-01T05:07:04;6.13;;;5.07;;
38208;SDS011;24016;52.102;11.584;2022-08-01T05:09:30;5.50;;;4.38;;
38208;SDS011;24016;52.102;11.584;2022-08-01T05:11:57;6.03;;;4.90;;
38208;SDS011;24016;52.102;11.584;2022-08-01T05:14:25;6.82;;;4.95;;
38208;SDS011;24016;52.102;11.584;2022-08-01T05:16:51;5.25;;;4.00;;
38208;SDS011;24016;52.102;11.584;2022-08-01T05:19:17;6.05;;;3.92;;
38208;SDS011;24016;52.102;11.584;2022-08-01T05:21:43;4.55;;;3.83;;
38208;SDS011;24016;52.102;11.584;2022-08-01T05:24:09;4.40;;;3.80;;
38208;SDS011;24016;52.102;11.584;2022-08-01T05:26:35;4.28;;;3.88;;
38208;SDS011;24016;52.102;11.584;2022-08-01T05:29:01;4.32;;;3.90;;
38208;SDS011;24016;52.102;11.584;2022-08-01T05:31:26;4.50;;;4.03;;
38208;SDS011;24016;52.102;11.584;2022-08-01T05:33:53;6.28;;;4.10;;
38208;SDS011;24016;52.102;11.584;2022-08-01T05:36:18;4.70;;;4.30;;
38208;SDS011;24016;52.102;11.584;2022-08-01T05:38:44;6.40;;;4.50;;
38208;SDS011;24016;52.102;11.584;2022-08-01T05:41:10;5.00;;;3.78;;
38208;SDS011;24016;52.102;11.584;2022-08-01T05:43:35;3.70;;;3.40;;
38208;SDS011;24016;52.102;11.584;2022-08-01T05:46:01;3.90;;;3.15;;
38208;SDS011;24016;52.102;11.584;2022-08-01T05:48:27;3.60;;;2.85;;
38208;SDS011;24016;52.102;11.584;2022-08-01T05:50:53;3.17;;;2.88;;
38208;SDS011;24016;52.102;11.584;2022-08-01T05:53:19;5.05;;;3.35;;
38208;SDS011;24016;52.102;11.584;2022-08-01T05:55:44;3.80;;;3.00;;
38208;SDS011;24016;52.102;11.584;2022-08-01T05:58:10;2.78;;;2.08;;
38208;SDS011;24016;52.102;11.584;2022-08-01T06:00:36;3.35;;;2.40;;
38208;SDS011;24016;52.102;11.584;2022-08-01T06:03:01;4.30;;;2.30;;
38208;SDS011;24016;52.102;11.584;2022-08-01T06:05:27;3.03;;;2.05;;
38208;SDS011;24016;52.102;11.584;2022-08-01T06:07:53;2.70;;;1.80;;
38208;SDS011;24016;52.102;11.584;2022-08-01T06:10:19;3.78;;;2.20;;
38208;SDS011;24016;52.102;11.584;2022-08-01T06:12:44;2.20;;;1.85;;
38208;SDS011;24016;52.102;11.584;2022-08-01T06:15:10;2.17;;;1.73;;
38208;SDS011;24016;52.102;11.584;2022-08-01T06:17:36;2.92;;;1.90;;
38208;SDS011;24016;52.102;11.584;2022-08-01T06:20:02;1.85;;;1.52;;
38208;SDS011;24016;52.102;11.584;2022-08-01T06:22:29;2.25;;;1.70;;
38208;SDS011;24016;52.102;11.584;2022-08-01T06:24:55;1.90;;;1.65;;
38208;SDS011;24016;52.102;11.584;2022-08-01T06:27:20;2.60;;;1.70;;
38208;SDS011;24016;52.102;11.584;2022-08-01T06:29:46;2.25;;;1.63;;
38208;SDS011;24016;52.102;11.584;2022-08-01T06:32:12;2.38;;;1.73;;
38208;SDS011;24016;52.102;11.584;2022-08-01T06:34:37;2.30;;;1.90;;
38208;SDS011;24016;52.102;11.584;2022-08-01T06:37:03;2.88;;;2.45;;
38208;SDS011;24016;52.102;11.584;2022-08-01T06:39:29;3.50;;;2.60;;
38208;SDS011;24016;52.102;11.584;2022-08-01T06:41:54;3.28;;;2.53;;
38208;SDS011;24016;52.102;11.584;2022-08-01T06:44:20;3.15;;;2.45;;
38208;SDS011;24016;52.102;11.584;2022-08-01T06:46:46;4.28;;;2.35;;
38208;SDS011;24016;52.102;11.584;2022-08-01T06:49:11;3.17;;;2.10;;
38208;SDS011;24016;52.102;11.584;2022-08-01T06:51:37;2.20;;;2.00;;
38208;SDS011;24016;52.102;11.584;2022-08-01T06:54:02;2.53;;;1.83;;
38208;SDS011;24016;52.102;11.584;2022-08-01T06:56:28;2.38;;;1.90;;
38208;SDS011;24016;52.102;11.584;2022-08-01T06:58:54;2.17;;;1.80;;
38208;SDS011;24016;52.102;11.584;2022-08-01T07:01:25;2.30;;;1.90;;
38208;SDS011;24016;52.102;11.584;2022-08-01T07:03:52;1.70;;;1.58;;
38208;SDS011;24016;52.102;11.584;2022-08-01T07:06:17;2.50;;;1.70;;
38208;SDS011;24016;52.102;11.584;2022-08-01T07:08:43;3.10;;;2.38;;
38208;SDS011;24016;52.102;11.584;2022-08-01T07:11:08;5.85;;;2.55;;
38208;SDS011;24016;52.102;11.584;2022-08-01T07:13:34;3.88;;;2.38;;
38208;SDS011;24016;52.102;11.584;2022-08-01T07:15:59;3.47;;;2.67;;
38208;SDS011;24016;52.102;11.584;2022-08-01T07:18:25;3.75;;;2.45;;
38208;SDS011;24016;52.102;11.584;2022-08-01T07:20:50;2.83;;;2.40;;
38208;SDS011;24016;52.102;11.584;2022-08-01T07:23:16;3.97;;;1.83;;
38208;SDS011;24016;52.102;11.584;2022-08-01T07:25:41;2.60;;;2.00;;
38208;SDS011;24016;52.102;11.584;2022-08-01T07:28:07;2.40;;;1.90;;
38208;SDS011;24016;52.102;11.584;2022-08-01T07:30:33;1.95;;;1.75;;
38208;SDS011;24016;52.102;11.584;2022-08-01T07:33:06;4.40;;;2.13;;
38208;SDS011;24016;52.102;11.584;2022-08-01T07:35:35;3.50;;;2.85;;
38208;SDS011;24016;52.102;11.584;2022-08-01T07:38:05;3.20;;;2.90;;
38208;SDS011;24016;52.102;11.584;2022-08-01T07:40:34;2.97;;;2.50;;
38208;SDS011;24016;52.102;11.584;2022-08-01T07:43:00;4.63;;;3.00;;
38208;SDS011;24016;52.102;11.584;2022-08-01T07:45:26;3.10;;;2.45;;
38208;SDS011;24016;52.102;11.584;2022-08-01T07:47:51;4.07;;;2.58;;
38208;SDS011;24016;52.102;11.584;2022-08-01T07:50:17;2.80;;;2.28;;
38208;SDS011;24016;52.102;11.584;2022-08-01T07:52:43;2.35;;;1.98;;
38208;SDS011;24016;52.102;11.584;2022-08-01T07:55:10;2.80;;;2.35;;
38208;SDS011;24016;52.102;11.584;2022-08-01T07:57:37;2.42;;;2.22;;
38208;SDS011;24016;52.102;11.584;2022-08-01T08:00:03;5.00;;;2.83;;
38208;SDS011;24016;52.102;11.584;2022-08-01T08:02:31;2.17;;;1.90;;
38208;SDS011;24016;52.102;11.584;2022-08-01T08:04:57;2.60;;;1.92;;
38208;SDS011;24016;52.102;11.584;2022-08-01T08:07:23;3.55;;;1.58;;
38208;SDS011;24016;52.102;11.584;2022-08-01T08:09:48;1.45;;;1.30;;
38208;SDS011;24016;52.102;11.584;2022-08-01T08:12:14;2.42;;;1.50;;
38208;SDS011;24016;52.102;11.584;2022-08-01T08:14:39;2.92;;;1.65;;
38208;SDS011;24016;52.102;11.584;2022-08-01T08:17:05;2.15;;;1.88;;
38208;SDS011;24016;52.102;11.584;2022-08-01T08:19:31;1.83;;;1.65;;
38208;SDS011;24016;52.102;11.584;2022-08-01T08:21:58;4.00;;;1.80;;
38208;SDS011;24016;52.102;11.584;2022-08-01T08:24:24;5.07;;;2.28;;
38208;SDS011;24016;52.102;11.584;2022-08-01T08:26:52;2.67;;;2.20;;
38208;SDS011;24016;52.102;11.584;2022-08-01T08:29:22;3.25;;;2.55;;
38208;SDS011;24016;52.102;11.584;2022-08-01T08:31:48;3.00;;;2.60;;
38208;SDS011;24016;52.102;11.584;2022-08-01T08:34:14;3.55;;;2.47;;
38208;SDS011;24016;52.102;11.584;2022-08-01T08:36:40;4.03;;;2.88;;
38208;SDS011;24016;52.102;11.584;2022-08-01T08:39:06;2.60;;;2.20;;
38208;SDS011;24016;52.102;11.584;2022-08-01T08:41:35;2.97;;;2.58;;
38208;SDS011;24016;52.102;11.584;2022-08-01T08:44:02;4.80;;;2.42;;
38208;SDS011;24016;52.102;11.584;2022-08-01T08:46:29;3.15;;;2.08;;
38208;SDS011;24016;52.102;11.584;2022-08-01T08:49:00;1.95;;;1.60;;
38208;SDS011;24016;52.102;11.584;2022-08-01T08:51:30;2.13;;;1.52;;
38208;SDS011;24016;52.102;11.584;2022-08-01T08:53:58;2.88;;;1.60;;
38208;SDS011;24016;52.102;11.584;2022-08-01T08:56:25;1.70;;;1.50;;
38208;SDS011;24016;52.102;11.584;2022-08-01T08:58:54;2.15;;;1.40;;
38208;SDS011;24016;52.102;11.584;2022-08-01T09:01:20;2.17;;;1.50;;
38208;SDS011;24016;52.102;11.584;2022-08-01T09:03:46;4.72;;;1.60;;
38208;SDS011;24016;52.102;11.584;2022-08-01T09:06:12;1.80;;;1.20;;
38208;SDS011;24016;52.102;11.584;2022-08-01T09:08:38;1.65;;;1.10;;
38208;SDS011;24016;52.102;11.584;2022-08-01T09:11:04;1.30;;;1.20;;
38208;SDS011;24016;52.102;11.584;2022-08-01T09:13:30;1.13;;;0.90;;
38208;SDS011;24016;52.102;11.584;2022-08-01T09:15:55;1.35;;;0.90;;
38208;SDS011;24016;52.102;11.584;2022-08-01T09:18:37;0.90;;;0.90;;
38208;SDS011;24016;52.102;11.584;2022-08-01T09:21:16;0.90;;;0.80;;
38208;SDS011;24016;52.102;11.584;2022-08-01T09:23:44;1.55;;;1.00;;
38208;SDS011;24016;52.102;11.584;2022-08-01T09:26:14;1.55;;;0.88;;
38208;SDS011;24016;52.102;11.584;2022-08-01T09:28:41;0.98;;;0.90;;
38208;SDS011;24016;52.102;11.584;2022-08-01T09:31:11;1.00;;;0.90;;
38208;SDS011;24016;52.102;11.584;2022-08-01T09:33:55;1.17;;;1.08;;
38208;SDS011;24016;52.102;11.584;2022-08-01T09:36:43;1.08;;;0.98;;
38208;SDS011;24016;52.102;11.584;2022-08-01T09:39:22;1.13;;;0.90;;
38208;SDS011;24016;52.102;11.584;2022-08-01T09:41:49;1.38;;;1.10;;
38208;SDS011;24016;52.102;11.584;2022-08-01T09:44:17;1.08;;;1.00;;
38208;SDS011;24016;52.102;11.584;2022-08-01T09:46:48;1.48;;;1.10;;
38208;SDS011;24016;52.102;11.584;2022-08-01T09:49:31;1.63;;;1.40;;
38208;SDS011;24016;52.102;11.584;2022-08-01T09:52:00;4.88;;;1.42;;
38208;SDS011;24016;52.102;11.584;2022-08-01T09:54:35;2.45;;;1.30;;
38208;SDS011;24016;52.102;11.584;2022-08-01T09:57:17;0.90;;;0.88;;
38208;SDS011;24016;52.102;11.584;2022-08-01T09:59:45;1.33;;;0.90;;
38208;SDS011;24016;52.102;11.584;2022-08-01T10:02:13;1.30;;;1.20;;
38208;SDS011;24016;52.102;11.584;2022-08-01T10:04:53;2.20;;;1.08;;
38208;SDS011;24016;52.102;11.584;2022-08-01T10:07:19;0.77;;;0.70;;
38208;SDS011;24016;52.102;11.584;2022-08-01T10:09:46;2.67;;;1.40;;
38208;SDS011;24016;52.102;11.584;2022-08-01T10:12:14;2.83;;;1.30;;
38208;SDS011;24016;52.102;11.584;2022-08-01T10:14:42;0.93;;;0.90;;
38208;SDS011;24016;52.102;11.584;2022-08-01T10:17:13;1.27;;;0.90;;
38208;SDS011;24016;52.102;11.584;2022-08-01T10:19:40;1.50;;;1.00;;
38208;SDS011;24016;52.102;11.584;2022-08-01T10:22:10;1.52;;;0.80;;
38208;SDS011;24016;52.102;11.584;2022-08-01T10:24:41;1.73;;;0.95;;
38208;SDS011;24016;52.102;11.584;2022-08-01T10:27:09;1.90;;;0.95;;
38208;SDS011;24016;52.102;11.584;2022-08-01T10:29:37;1.65;;;0.80;;
38208;SDS011;24016;52.102;11.584;2022-08-01T10:34:34;1.08;;;0.90;;
38208;SDS011;24016;52.102;11.584;2022-08-01T10:37:01;0.90;;;0.90;;
38208;SDS011;24016;52.102;11.584;2022-08-01T10:39:27;1.05;;;0.80;;
38208;SDS011;24016;52.102;11.584;2022-08-01T10:41:55;1.35;;;0.90;;
38208;SDS011;24016;52.102;11.584;2022-08-01T10:44:21;1.05;;;0.95;;
38208;SDS011;24016;52.102;11.584;2022-08-01T10:46:49;0.90;;;0.70;;
38208;SDS011;24016;52.102;11.584;2022-08-01T10:49:20;1.77;;;0.80;;
38208;SDS011;24016;52.102;11.584;2022-08-01T10:51:49;0.98;;;0.88;;
38208;SDS011;24016;52.102;11.584;2022-08-01T10:54:15;1.00;;;0.80;;
38208;SDS011;24016;52.102;11.584;2022-08-01T10:59:14;1.80;;;0.70;;
38208;SDS011;24016;52.102;11.584;2022-08-01T11:01:44;0.68;;;0.68;;
38208;SDS011;24016;52.102;11.584;2022-08-01T11:07:42;1.48;;;0.88;;
38208;SDS011;24016;52.102;11.584;2022-08-01T11:10:53;1.85;;;0.95;;
38208;SDS011;24016;52.102;11.584;2022-08-01T11:13:03;0.82;;;0.70;;
38208;SDS011;24016;52.102;11.584;2022-08-01T11:15:32;1.83;;;0.70;;
38208;SDS011;24016;52.102;11.584;2022-08-01T11:18:00;0.80;;;0.80;;
38208;SDS011;24016;52.102;11.584;2022-08-01T11:20:32;1.17;;;0.75;;
38208;SDS011;24016;52.102;11.584;2022-08-01T11:28:23;0.82;;;0.80;;
38208;SDS011;24016;52.102;11.584;2022-08-01T11:39:10;1.88;;;0.90;;
38208;SDS011;24016;52.102;11.584;2022-08-01T11:41:37;0.80;;;0.70;;
38208;SDS011;24016;52.102;11.584;2022-08-01T11:44:13;1.73;;;0.80;;
38208;SDS011;24016;52.102;11.584;2022-08-01T11:46:53;1.05;;;0.68;;
38208;SDS011;24016;52.102;11.584;2022-08-01T11:52:14;0.93;;;0.73;;
38208;SDS011;24016;52.102;11.584;2022-08-01T11:54:48;1.20;;;0.80;;
38208;SDS011;24016;52.102;11.584;2022-08-01T11:57:21;0.80;;;0.80;;
38208;SDS011;24016;52.102;11.584;2022-08-01T11:59:53;1.33;;;0.70;;
38208;SDS011;24016;52.102;11.584;2022-08-01T12:02:21;1.58;;;1.00;;
38208;SDS011;24016;52.102;11.584;2022-08-01T12:07:21;4.15;;;0.80;;
38208;SDS011;24016;52.102;11.584;2022-08-01T12:10:13;2.55;;;1.05;;
38208;SDS011;24016;52.102;11.584;2022-08-01T12:15:30;0.80;;;0.80;;
38208;SDS011;24016;52.102;11.584;2022-08-01T12:18:02;1.00;;;0.95;;
38208;SDS011;24016;52.102;11.584;2022-08-01T12:20:32;1.90;;;1.33;;
38208;SDS011;24016;52.102;11.584;2022-08-01T12:23:01;1.83;;;1.10;;
38208;SDS011;24016;52.102;11.584;2022-08-01T12:25:28;1.15;;;0.95;;
38208;SDS011;24016;52.102;11.584;2022-08-01T12:27:54;1.15;;;0.80;;
38208;SDS011;24016;52.102;11.584;2022-08-01T12:30:23;0.95;;;0.90;;
38208;SDS011;24016;52.102;11.584;2022-08-01T12:32:50;0.82;;;0.82;;
38208;SDS011;24016;52.102;11.584;2022-08-01T12:35:17;1.05;;;0.85;;
38208;SDS011;24016;52.102;11.584;2022-08-01T12:37:48;1.17;;;0.75;;
38208;SDS011;24016;52.102;11.584;2022-08-01T12:40:16;0.70;;;0.70;;
38208;SDS011;24016;52.102;11.584;2022-08-01T12:42:51;0.82;;;0.60;;
38208;SDS011;24016;52.102;11.584;2022-08-01T12:45:27;1.75;;;0.70;;
38208;SDS011;24016;52.102;11.584;2022-08-01T12:48:00;1.02;;;0.80;;
38208;SDS011;24016;52.102;11.584;2022-08-01T12:50:30;1.00;;;0.70;;
38208;SDS011;24016;52.102;11.584;2022-08-01T12:52:57;1.50;;;0.80;;
38208;SDS011;24016;52.102;11.584;2022-08-01T12:55:24;1.48;;;0.60;;
38208;SDS011;24016;52.102;11.584;2022-08-01T12:58:03;1.63;;;0.60;;
38208;SDS011;24016;52.102;11.584;2022-08-01T13:00:33;1.05;;;0.80;;
38208;SDS011;24016;52.102;11.584;2022-08-01T13:03:04;2.80;;;0.77;;
38208;SDS011;24016;52.102;11.584;2022-08-01T13:05:42;0.63;;;0.57;;
38208;SDS011;24016;52.102;11.584;2022-08-01T13:08:22;1.10;;;0.80;;
38208;SDS011;24016;52.102;11.584;2022-08-01T13:10:50;0.60;;;0.60;;
38208;SDS011;24016;52.102;11.584;2022-08-01T13:13:37;0.95;;;0.60;;
38208;SDS011;24016;52.102;11.584;2022-08-01T13:16:04;0.85;;;0.60;;
38208;SDS011;24016;52.102;11.584;2022-08-01T13:18:32;0.70;;;0.70;;
38208;SDS011;24016;52.102;11.584;2022-08-01T13:23:40;4.82;;;0.90;;
38208;SDS011;24016;52.102;11.584;2022-08-01T13:26:07;1.65;;;0.50;;
38208;SDS011;24016;52.102;11.584;2022-08-01T13:28:33;2.75;;;0.77;;
38208;SDS011;24016;52.102;11.584;2022-08-01T13:31:04;1.38;;;0.60;;
38208;SDS011;24016;52.102;11.584;2022-08-01T13:33:47;0.73;;;0.70;;
38208;SDS011;24016;52.102;11.584;2022-08-01T13:36:13;2.20;;;1.00;;
38208;SDS011;24016;52.102;11.584;2022-08-01T13:38:39;1.85;;;0.85;;
38208;SDS011;24016;52.102;11.584;2022-08-01T13:41:25;1.30;;;0.60;;
38208;SDS011;24016;52.102;11.584;2022-08-01T13:43:51;2.65;;;0.47;;
38208;SDS011;24016;52.102;11.584;2022-08-01T13:46:17;2.72;;;0.70;;
38208;SDS011;24016;52.102;11.584;2022-08-01T13:48:43;2.95;;;0.70;;
38208;SDS011;24016;52.102;11.584;2022-08-01T13:51:08;0.63;;;0.43;;
38208;SDS011;24016;52.102;11.584;2022-08-01T13:53:35;1.27;;;0.70;;
38208;SDS011;24016;52.102;11.584;2022-08-01T13:56:01;1.88;;;0.60;;
38208;SDS011;24016;52.102;11.584;2022-08-01T13:58:26;0.95;;;0.50;;
38208;SDS011;24016;52.102;11.584;2022-08-01T14:00:53;0.85;;;0.55;;
38208;SDS011;24016;52.102;11.584;2022-08-01T14:03:19;1.35;;;0.57;;
38208;SDS011;24016;52.102;11.584;2022-08-01T14:05:45;1.65;;;0.50;;
38208;SDS011;24016;52.102;11.584;2022-08-01T14:08:11;1.15;;;0.55;;
38208;SDS011;24016;52.102;11.584;2022-08-01T14:10:37;1.40;;;0.70;;
38208;SDS011;24016;52.102;11.584;2022-08-01T14:13:03;2.35;;;0.63;;
38208;SDS011;24016;52.102;11.584;2022-08-01T14:15:28;0.77;;;0.52;;
38208;SDS011;24016;52.102;11.584;2022-08-01T14:17:56;0.93;;;0.70;;
38208;SDS011;24016;52.102;11.584;2022-08-01T14:20:22;1.17;;;0.80;;
38208;SDS011;24016;52.102;11.584;2022-08-01T14:22:48;0.80;;;0.60;;
38208;SDS011;24016;52.102;11.584;2022-08-01T14:25:14;0.77;;;0.60;;
38208;SDS011;24016;52.102;11.584;2022-08-01T14:27:39;1.67;;;0.70;;
38208;SDS011;24016;52.102;11.584;2022-08-01T14:30:06;4.07;;;0.80;;
38208;SDS011;24016;52.102;11.584;2022-08-01T14:32:33;2.13;;;0.70;;
38208;SDS011;24016;52.102;11.584;2022-08-01T14:35:02;0.77;;;0.50;;
38208;SDS011;24016;52.102;11.584;2022-08-01T14:37:29;0.73;;;0.70;;
38208;SDS011;24016;52.102;11.584;2022-08-01T14:39:55;1.60;;;0.70;;
38208;SDS011;24016;52.102;11.584;2022-08-01T14:42:21;4.63;;;0.88;;
38208;SDS011;24016;52.102;11.584;2022-08-01T14:44:47;1.35;;;0.52;;
38208;SDS011;24016;52.102;11.584;2022-08-01T14:47:13;1.02;;;0.80;;
38208;SDS011;24016;52.102;11.584;2022-08-01T14:49:38;1.45;;;0.70;;
38208;SDS011;24016;52.102;11.584;2022-08-01T14:52:04;1.38;;;0.70;;
38208;SDS011;24016;52.102;11.584;2022-08-01T14:54:29;0.93;;;0.75;;
38208;SDS011;24016;52.102;11.584;2022-08-01T14:56:55;0.68;;;0.60;;
38208;SDS011;24016;52.102;11.584;2022-08-01T14:59:21;1.15;;;0.70;;
38208;SDS011;24016;52.102;11.584;2022-08-01T15:01:46;0.95;;;0.60;;
38208;SDS011;24016;52.102;11.584;2022-08-01T15:04:12;1.50;;;0.90;;
38208;SDS011;24016;52.102;11.584;2022-08-01T15:06:37;7.55;;;0.80;;
38208;SDS011;24016;52.102;11.584;2022-08-01T15:09:03;0.75;;;0.60;;
38208;SDS011;24016;52.102;11.584;2022-08-01T15:11:28;1.63;;;0.70;;
38208;SDS011;24016;52.102;11.584;2022-08-01T15:13:54;1.73;;;0.88;;
38208;SDS011;24016;52.102;11.584;2022-08-01T15:16:38;2.88;;;1.00;;
38208;SDS011;24016;52.102;11.584;2022-08-01T15:19:04;2.20;;;0.73;;
38208;SDS011;24016;52.102;11.584;2022-08-01T15:21:30;1.52;;;0.75;;
38208;SDS011;24016;52.102;11.584;2022-08-01T15:23:55;0.98;;;0.77;;
38208;SDS011;24016;52.102;11.584;2022-08-01T15:26:21;0.85;;;0.80;;
38208;SDS011;24016;52.102;11.584;2022-08-01T15:28:46;3.15;;;0.93;;